Marysville, Ohio
Current Conditions -  °F | °C
As of 11:13 AM on Saturday 25 Oct 2014 (Local Time) from KMRT Reporting Station
Scattered Clouds Scattered Clouds  
Wind Chill: 61°   Ceiling: Unl
Heat Index: 61°   Visibility: 10mi
Dew Point: 49°   Wind: 15mph
Humidity: 65%   Direction: 250°WSW
Pressure: 29.93"   Gusts: NA
Location:  40.24°N, 83.37°W
Report Text: KMRT 251513Z AUTO 25013KT 10SM SCT027 16/10 A2993 RMK AO2 T01630096
Loading
Personal Weather Stations






























Interactive Weather Map New forecast layout! Learn more

10-Day Weather Forecast

Advertisements
Track Severe Weather on mobile